sensor_id;sensor_type;location;lat;lon;timestamp;P1;durP1;ratioP1;P2;durP2;ratioP2
68714;SDS011;55692;53.356;10.030;2024-01-15T00:02:08;11.10;;;2.15;;
68714;SDS011;55692;53.356;10.030;2024-01-15T00:04:37;10.32;;;1.73;;
68714;SDS011;55692;53.356;10.030;2024-01-15T00:07:04;7.22;;;1.60;;
68714;SDS011;55692;53.356;10.030;2024-01-15T00:09:30;9.38;;;1.75;;
68714;SDS011;55692;53.356;10.030;2024-01-15T00:11:56;8.07;;;1.20;;
68714;SDS011;55692;53.356;10.030;2024-01-15T00:14:22;16.35;;;2.70;;
68714;SDS011;55692;53.356;10.030;2024-01-15T00:16:48;14.43;;;1.35;;
68714;SDS011;55692;53.356;10.030;2024-01-15T00:19:19;7.47;;;1.48;;
68714;SDS011;55692;53.356;10.030;2024-01-15T00:21:45;3.47;;;1.30;;
68714;SDS011;55692;53.356;10.030;2024-01-15T00:24:11;9.82;;;1.55;;
68714;SDS011;55692;53.356;10.030;2024-01-15T00:26:37;11.52;;;1.70;;
68714;SDS011;55692;53.356;10.030;2024-01-15T00:29:03;8.57;;;1.70;;
68714;SDS011;55692;53.356;10.030;2024-01-15T00:31:30;9.82;;;1.38;;
68714;SDS011;55692;53.356;10.030;2024-01-15T00:33:56;7.80;;;1.52;;
68714;SDS011;55692;53.356;10.030;2024-01-15T00:36:22;12.98;;;1.80;;
68714;SDS011;55692;53.356;10.030;2024-01-15T00:38:48;10.20;;;1.30;;
68714;SDS011;55692;53.356;10.030;2024-01-15T00:41:15;12.05;;;2.05;;
68714;SDS011;55692;53.356;10.030;2024-01-15T00:43:41;5.18;;;1.33;;
68714;SDS011;55692;53.356;10.030;2024-01-15T00:46:07;8.90;;;1.55;;
68714;SDS011;55692;53.356;10.030;2024-01-15T00:48:33;5.35;;;1.40;;
68714;SDS011;55692;53.356;10.030;2024-01-15T00:50:59;10.50;;;1.40;;
68714;SDS011;55692;53.356;10.030;2024-01-15T00:53:25;4.35;;;1.38;;
68714;SDS011;55692;53.356;10.030;2024-01-15T00:55:51;9.70;;;1.17;;
68714;SDS011;55692;53.356;10.030;2024-01-15T00:58:18;7.78;;;1.40;;
68714;SDS011;55692;53.356;10.030;2024-01-15T01:00:44;4.95;;;0.93;;
68714;SDS011;55692;53.356;10.030;2024-01-15T01:03:10;8.85;;;1.83;;
68714;SDS011;55692;53.356;10.030;2024-01-15T01:05:36;6.63;;;1.20;;
68714;SDS011;55692;53.356;10.030;2024-01-15T01:08:02;5.03;;;1.25;;
68714;SDS011;55692;53.356;10.030;2024-01-15T01:10:28;18.77;;;3.03;;
68714;SDS011;55692;53.356;10.030;2024-01-15T01:12:55;5.05;;;1.02;;
68714;SDS011;55692;53.356;10.030;2024-01-15T01:15:21;4.35;;;1.08;;
68714;SDS011;55692;53.356;10.030;2024-01-15T01:17:47;9.43;;;1.45;;
68714;SDS011;55692;53.356;10.030;2024-01-15T01:20:13;2.90;;;0.90;;
68714;SDS011;55692;53.356;10.030;2024-01-15T01:22:40;14.77;;;1.98;;
68714;SDS011;55692;53.356;10.030;2024-01-15T01:25:06;6.57;;;1.45;;
68714;SDS011;55692;53.356;10.030;2024-01-15T01:27:32;6.55;;;1.35;;
68714;SDS011;55692;53.356;10.030;2024-01-15T01:29:58;10.10;;;1.60;;
68714;SDS011;55692;53.356;10.030;2024-01-15T01:32:24;6.88;;;1.65;;
68714;SDS011;55692;53.356;10.030;2024-01-15T01:34:50;6.20;;;0.95;;
68714;SDS011;55692;53.356;10.030;2024-01-15T01:37:16;6.93;;;1.38;;
68714;SDS011;55692;53.356;10.030;2024-01-15T01:39:43;3.80;;;0.88;;
68714;SDS011;55692;53.356;10.030;2024-01-15T01:42:09;13.15;;;1.55;;
68714;SDS011;55692;53.356;10.030;2024-01-15T01:44:35;8.10;;;1.70;;
68714;SDS011;55692;53.356;10.030;2024-01-15T01:47:01;8.27;;;1.85;;
68714;SDS011;55692;53.356;10.030;2024-01-15T01:49:28;10.85;;;2.05;;
68714;SDS011;55692;53.356;10.030;2024-01-15T01:51:57;8.55;;;1.60;;
68714;SDS011;55692;53.356;10.030;2024-01-15T01:54:24;8.23;;;1.33;;
68714;SDS011;55692;53.356;10.030;2024-01-15T01:56:51;5.00;;;1.48;;
68714;SDS011;55692;53.356;10.030;2024-01-15T01:59:17;5.05;;;1.52;;
68714;SDS011;55692;53.356;10.030;2024-01-15T02:01:44;7.72;;;1.40;;
68714;SDS011;55692;53.356;10.030;2024-01-15T02:04:10;8.73;;;1.42;;
68714;SDS011;55692;53.356;10.030;2024-01-15T02:06:36;7.78;;;1.25;;
68714;SDS011;55692;53.356;10.030;2024-01-15T02:09:03;8.30;;;0.90;;
68714;SDS011;55692;53.356;10.030;2024-01-15T02:11:30;5.72;;;0.98;;
68714;SDS011;55692;53.356;10.030;2024-01-15T02:13:57;4.80;;;1.00;;
68714;SDS011;55692;53.356;10.030;2024-01-15T02:16:23;7.53;;;1.55;;
68714;SDS011;55692;53.356;10.030;2024-01-15T02:18:49;3.33;;;0.93;;
68714;SDS011;55692;53.356;10.030;2024-01-15T02:21:15;5.20;;;0.77;;
68714;SDS011;55692;53.356;10.030;2024-01-15T02:23:41;4.32;;;1.48;;
68714;SDS011;55692;53.356;10.030;2024-01-15T02:26:07;2.97;;;0.88;;
68714;SDS011;55692;53.356;10.030;2024-01-15T02:28:33;8.13;;;1.13;;
68714;SDS011;55692;53.356;10.030;2024-01-15T02:30:59;11.77;;;2.10;;
68714;SDS011;55692;53.356;10.030;2024-01-15T02:33:26;3.50;;;0.80;;
68714;SDS011;55692;53.356;10.030;2024-01-15T02:35:51;6.03;;;1.00;;
68714;SDS011;55692;53.356;10.030;2024-01-15T02:38:18;2.88;;;1.08;;
68714;SDS011;55692;53.356;10.030;2024-01-15T02:40:44;4.78;;;0.95;;
68714;SDS011;55692;53.356;10.030;2024-01-15T02:43:11;4.57;;;0.93;;
68714;SDS011;55692;53.356;10.030;2024-01-15T02:45:38;7.45;;;1.00;;
68714;SDS011;55692;53.356;10.030;2024-01-15T02:48:04;8.70;;;1.17;;
68714;SDS011;55692;53.356;10.030;2024-01-15T02:50:30;5.30;;;1.27;;
68714;SDS011;55692;53.356;10.030;2024-01-15T02:52:57;2.60;;;0.93;;
68714;SDS011;55692;53.356;10.030;2024-01-15T02:55:23;6.35;;;0.70;;
68714;SDS011;55692;53.356;10.030;2024-01-15T02:57:49;7.65;;;1.42;;
68714;SDS011;55692;53.356;10.030;2024-01-15T03:00:15;7.55;;;1.33;;
68714;SDS011;55692;53.356;10.030;2024-01-15T03:02:41;4.57;;;1.17;;
68714;SDS011;55692;53.356;10.030;2024-01-15T03:05:10;6.40;;;1.42;;
68714;SDS011;55692;53.356;10.030;2024-01-15T03:07:36;5.20;;;0.88;;
68714;SDS011;55692;53.356;10.030;2024-01-15T03:10:02;3.25;;;0.90;;
68714;SDS011;55692;53.356;10.030;2024-01-15T03:12:28;15.55;;;1.05;;
68714;SDS011;55692;53.356;10.030;2024-01-15T03:14:54;4.55;;;0.80;;
68714;SDS011;55692;53.356;10.030;2024-01-15T03:17:20;3.38;;;1.08;;
68714;SDS011;55692;53.356;10.030;2024-01-15T03:19:46;7.78;;;1.02;;
68714;SDS011;55692;53.356;10.030;2024-01-15T03:22:12;3.30;;;0.82;;
68714;SDS011;55692;53.356;10.030;2024-01-15T03:24:38;11.70;;;1.50;;
68714;SDS011;55692;53.356;10.030;2024-01-15T03:27:04;6.47;;;1.35;;
68714;SDS011;55692;53.356;10.030;2024-01-15T03:29:30;8.30;;;1.75;;
68714;SDS011;55692;53.356;10.030;2024-01-15T03:31:56;10.50;;;0.80;;
68714;SDS011;55692;53.356;10.030;2024-01-15T03:34:22;8.20;;;2.05;;
68714;SDS011;55692;53.356;10.030;2024-01-15T03:36:48;6.90;;;1.02;;
68714;SDS011;55692;53.356;10.030;2024-01-15T03:39:14;6.53;;;1.17;;
68714;SDS011;55692;53.356;10.030;2024-01-15T03:41:40;7.32;;;1.58;;
68714;SDS011;55692;53.356;10.030;2024-01-15T03:44:06;10.95;;;1.48;;
68714;SDS011;55692;53.356;10.030;2024-01-15T03:46:32;8.05;;;0.95;;
68714;SDS011;55692;53.356;10.030;2024-01-15T03:48:58;14.77;;;1.90;;
68714;SDS011;55692;53.356;10.030;2024-01-15T03:51:24;15.45;;;1.42;;
68714;SDS011;55692;53.356;10.030;2024-01-15T03:53:51;8.07;;;1.15;;
68714;SDS011;55692;53.356;10.030;2024-01-15T03:56:17;11.95;;;1.65;;
68714;SDS011;55692;53.356;10.030;2024-01-15T03:58:43;7.93;;;1.55;;
68714;SDS011;55692;53.356;10.030;2024-01-15T04:01:09;3.88;;;1.08;;
68714;SDS011;55692;53.356;10.030;2024-01-15T04:03:35;8.60;;;1.08;;
68714;SDS011;55692;53.356;10.030;2024-01-15T04:06:01;6.55;;;1.00;;
68714;SDS011;55692;53.356;10.030;2024-01-15T04:08:27;2.55;;;0.73;;
68714;SDS011;55692;53.356;10.030;2024-01-15T04:10:53;6.93;;;1.52;;
68714;SDS011;55692;53.356;10.030;2024-01-15T04:13:20;5.70;;;0.90;;
68714;SDS011;55692;53.356;10.030;2024-01-15T04:15:46;13.68;;;1.95;;
68714;SDS011;55692;53.356;10.030;2024-01-15T04:18:12;8.27;;;1.35;;
68714;SDS011;55692;53.356;10.030;2024-01-15T04:20:38;13.50;;;1.60;;
68714;SDS011;55692;53.356;10.030;2024-01-15T04:23:04;9.35;;;1.48;;
68714;SDS011;55692;53.356;10.030;2024-01-15T04:25:30;9.75;;;1.30;;
68714;SDS011;55692;53.356;10.030;2024-01-15T04:27:57;11.13;;;2.03;;
68714;SDS011;55692;53.356;10.030;2024-01-15T04:30:23;6.53;;;1.58;;
68714;SDS011;55692;53.356;10.030;2024-01-15T04:32:48;7.57;;;1.42;;
68714;SDS011;55692;53.356;10.030;2024-01-15T04:35:14;12.68;;;1.95;;
68714;SDS011;55692;53.356;10.030;2024-01-15T04:37:41;10.25;;;1.50;;
68714;SDS011;55692;53.356;10.030;2024-01-15T04:40:07;11.45;;;1.88;;
68714;SDS011;55692;53.356;10.030;2024-01-15T04:42:33;11.80;;;1.55;;
68714;SDS011;55692;53.356;10.030;2024-01-15T04:44:59;15.45;;;2.05;;
68714;SDS011;55692;53.356;10.030;2024-01-15T04:47:25;19.33;;;2.83;;
68714;SDS011;55692;53.356;10.030;2024-01-15T04:49:51;7.15;;;1.10;;
68714;SDS011;55692;53.356;10.030;2024-01-15T04:52:17;8.60;;;1.80;;
68714;SDS011;55692;53.356;10.030;2024-01-15T04:54:43;8.43;;;1.55;;
68714;SDS011;55692;53.356;10.030;2024-01-15T04:57:09;12.38;;;1.92;;
68714;SDS011;55692;53.356;10.030;2024-01-15T04:59:35;14.55;;;1.98;;
68714;SDS011;55692;53.356;10.030;2024-01-15T05:02:01;7.28;;;1.85;;
68714;SDS011;55692;53.356;10.030;2024-01-15T05:04:27;8.52;;;1.08;;
68714;SDS011;55692;53.356;10.030;2024-01-15T05:06:54;12.35;;;1.80;;
68714;SDS011;55692;53.356;10.030;2024-01-15T05:09:20;15.20;;;1.95;;
68714;SDS011;55692;53.356;10.030;2024-01-15T05:11:46;16.63;;;1.85;;
68714;SDS011;55692;53.356;10.030;2024-01-15T05:14:12;12.73;;;1.67;;
68714;SDS011;55692;53.356;10.030;2024-01-15T05:16:39;13.68;;;1.70;;
68714;SDS011;55692;53.356;10.030;2024-01-15T05:19:06;4.13;;;0.82;;
68714;SDS011;55692;53.356;10.030;2024-01-15T05:21:32;11.25;;;1.35;;
68714;SDS011;55692;53.356;10.030;2024-01-15T05:23:58;8.75;;;1.30;;
68714;SDS011;55692;53.356;10.030;2024-01-15T05:26:24;9.63;;;1.60;;
68714;SDS011;55692;53.356;10.030;2024-01-15T05:28:50;8.90;;;1.58;;
68714;SDS011;55692;53.356;10.030;2024-01-15T05:31:16;11.32;;;1.88;;
68714;SDS011;55692;53.356;10.030;2024-01-15T05:33:42;23.13;;;2.20;;
68714;SDS011;55692;53.356;10.030;2024-01-15T05:36:08;15.32;;;1.92;;
68714;SDS011;55692;53.356;10.030;2024-01-15T05:38:34;13.38;;;2.00;;
68714;SDS011;55692;53.356;10.030;2024-01-15T05:41:00;11.63;;;1.67;;
68714;SDS011;55692;53.356;10.030;2024-01-15T05:43:26;23.90;;;2.90;;
68714;SDS011;55692;53.356;10.030;2024-01-15T05:45:52;18.45;;;1.73;;
68714;SDS011;55692;53.356;10.030;2024-01-15T05:48:18;20.70;;;2.08;;
68714;SDS011;55692;53.356;10.030;2024-01-15T05:50:44;17.98;;;2.70;;
68714;SDS011;55692;53.356;10.030;2024-01-15T05:53:10;5.10;;;1.15;;
68714;SDS011;55692;53.356;10.030;2024-01-15T05:55:36;12.90;;;2.22;;
68714;SDS011;55692;53.356;10.030;2024-01-15T05:58:03;14.85;;;1.80;;
68714;SDS011;55692;53.356;10.030;2024-01-15T06:00:29;9.57;;;2.63;;
68714;SDS011;55692;53.356;10.030;2024-01-15T06:02:55;15.90;;;2.08;;
68714;SDS011;55692;53.356;10.030;2024-01-15T06:05:21;10.30;;;2.00;;
68714;SDS011;55692;53.356;10.030;2024-01-15T06:07:47;16.15;;;3.10;;
68714;SDS011;55692;53.356;10.030;2024-01-15T06:10:13;15.38;;;2.10;;
68714;SDS011;55692;53.356;10.030;2024-01-15T06:12:39;10.52;;;1.55;;
68714;SDS011;55692;53.356;10.030;2024-01-15T06:15:05;17.42;;;2.20;;
68714;SDS011;55692;53.356;10.030;2024-01-15T06:17:31;13.05;;;1.70;;
68714;SDS011;55692;53.356;10.030;2024-01-15T06:19:58;13.30;;;1.75;;
68714;SDS011;55692;53.356;10.030;2024-01-15T06:22:24;15.80;;;2.25;;
68714;SDS011;55692;53.356;10.030;2024-01-15T06:24:50;12.38;;;1.67;;
68714;SDS011;55692;53.356;10.030;2024-01-15T06:27:15;18.90;;;2.15;;
68714;SDS011;55692;53.356;10.030;2024-01-15T06:29:44;16.25;;;2.10;;
68714;SDS011;55692;53.356;10.030;2024-01-15T06:32:13;12.35;;;2.20;;
68714;SDS011;55692;53.356;10.030;2024-01-15T06:34:39;13.63;;;1.80;;
68714;SDS011;55692;53.356;10.030;2024-01-15T06:37:06;17.30;;;2.47;;
68714;SDS011;55692;53.356;10.030;2024-01-15T06:39:32;12.38;;;1.73;;
68714;SDS011;55692;53.356;10.030;2024-01-15T06:41:58;23.08;;;2.60;;
68714;SDS011;55692;53.356;10.030;2024-01-15T06:44:24;16.70;;;2.15;;
68714;SDS011;55692;53.356;10.030;2024-01-15T06:46:49;19.08;;;2.58;;
68714;SDS011;55692;53.356;10.030;2024-01-15T06:49:16;12.88;;;1.58;;
68714;SDS011;55692;53.356;10.030;2024-01-15T06:51:42;14.10;;;2.70;;
68714;SDS011;55692;53.356;10.030;2024-01-15T06:54:08;11.80;;;1.90;;
68714;SDS011;55692;53.356;10.030;2024-01-15T06:56:34;14.85;;;2.10;;
68714;SDS011;55692;53.356;10.030;2024-01-15T06:59:00;10.43;;;2.78;;
68714;SDS011;55692;53.356;10.030;2024-01-15T07:01:27;13.38;;;2.63;;
68714;SDS011;55692;53.356;10.030;2024-01-15T07:03:53;14.95;;;2.20;;
68714;SDS011;55692;53.356;10.030;2024-01-15T07:06:19;4.50;;;1.25;;
68714;SDS011;55692;53.356;10.030;2024-01-15T07:08:45;12.73;;;2.22;;
68714;SDS011;55692;53.356;10.030;2024-01-15T07:11:11;13.32;;;1.52;;
68714;SDS011;55692;53.356;10.030;2024-01-15T07:13:37;27.52;;;1.98;;
68714;SDS011;55692;53.356;10.030;2024-01-15T07:16:03;14.75;;;1.85;;
68714;SDS011;55692;53.356;10.030;2024-01-15T07:18:29;10.75;;;1.60;;
68714;SDS011;55692;53.356;10.030;2024-01-15T07:20:55;10.88;;;1.55;;
68714;SDS011;55692;53.356;10.030;2024-01-15T07:23:21;8.35;;;1.48;;
68714;SDS011;55692;53.356;10.030;2024-01-15T07:25:47;8.70;;;2.05;;
68714;SDS011;55692;53.356;10.030;2024-01-15T07:28:13;11.18;;;1.55;;
68714;SDS011;55692;53.356;10.030;2024-01-15T07:30:39;15.07;;;2.53;;
68714;SDS011;55692;53.356;10.030;2024-01-15T07:33:05;9.18;;;1.17;;
68714;SDS011;55692;53.356;10.030;2024-01-15T07:35:31;14.38;;;1.42;;
68714;SDS011;55692;53.356;10.030;2024-01-15T07:37:57;8.32;;;1.50;;
68714;SDS011;55692;53.356;10.030;2024-01-15T07:40:23;9.20;;;1.40;;
68714;SDS011;55692;53.356;10.030;2024-01-15T07:42:50;7.03;;;1.40;;
68714;SDS011;55692;53.356;10.030;2024-01-15T07:45:16;9.65;;;1.80;;
68714;SDS011;55692;53.356;10.030;2024-01-15T07:47:42;9.80;;;1.88;;
68714;SDS011;55692;53.356;10.030;2024-01-15T07:50:08;14.15;;;1.75;;
68714;SDS011;55692;53.356;10.030;2024-01-15T07:52:34;14.25;;;1.35;;
68714;SDS011;55692;53.356;10.030;2024-01-15T07:55:00;7.28;;;1.08;;
68714;SDS011;55692;53.356;10.030;2024-01-15T07:57:28;5.00;;;0.73;;
68714;SDS011;55692;53.356;10.030;2024-01-15T07:59:54;7.20;;;1.33;;
68714;SDS011;55692;53.356;10.030;2024-01-15T08:02:20;3.60;;;0.82;;
68714;SDS011;55692;53.356;10.030;2024-01-15T08:04:46;4.90;;;0.55;;
68714;SDS011;55692;53.356;10.030;2024-01-15T08:07:12;8.02;;;0.80;;
68714;SDS011;55692;53.356;10.030;2024-01-15T08:09:38;2.13;;;0.82;;
68714;SDS011;55692;53.356;10.030;2024-01-15T08:12:05;9.45;;;0.98;;
68714;SDS011;55692;53.356;10.030;2024-01-15T08:14:31;9.07;;;1.00;;
68714;SDS011;55692;53.356;10.030;2024-01-15T08:16:57;0.88;;;0.52;;
68714;SDS011;55692;53.356;10.030;2024-01-15T08:19:23;3.67;;;0.73;;
68714;SDS011;55692;53.356;10.030;2024-01-15T08:21:49;7.07;;;1.10;;
68714;SDS011;55692;53.356;10.030;2024-01-15T08:24:15;5.88;;;1.10;;
68714;SDS011;55692;53.356;10.030;2024-01-15T08:26:41;4.22;;;0.80;;
68714;SDS011;55692;53.356;10.030;2024-01-15T08:29:07;5.70;;;0.90;;
68714;SDS011;55692;53.356;10.030;2024-01-15T08:31:33;8.23;;;1.40;;
68714;SDS011;55692;53.356;10.030;2024-01-15T08:33:59;3.45;;;0.70;;
68714;SDS011;55692;53.356;10.030;2024-01-15T08:36:26;2.20;;;0.63;;
68714;SDS011;55692;53.356;10.030;2024-01-15T08:38:54;5.45;;;1.23;;
68714;SDS011;55692;53.356;10.030;2024-01-15T08:41:20;5.28;;;0.80;;
68714;SDS011;55692;53.356;10.030;2024-01-15T08:43:46;7.40;;;0.70;;
68714;SDS011;55692;53.356;10.030;2024-01-15T08:46:12;2.00;;;0.52;;
68714;SDS011;55692;53.356;10.030;2024-01-15T08:48:38;3.30;;;0.80;;
68714;SDS011;55692;53.356;10.030;2024-01-15T08:51:05;1.83;;;0.70;;
68714;SDS011;55692;53.356;10.030;2024-01-15T08:53:31;2.90;;;0.70;;
68714;SDS011;55692;53.356;10.030;2024-01-15T08:55:57;2.53;;;0.65;;
68714;SDS011;55692;53.356;10.030;2024-01-15T08:58:24;1.83;;;0.50;;
68714;SDS011;55692;53.356;10.030;2024-01-15T09:00:50;0.30;;;0.30;;
68714;SDS011;55692;53.356;10.030;2024-01-15T09:03:16;4.32;;;1.00;;
68714;SDS011;55692;53.356;10.030;2024-01-15T09:05:42;5.18;;;0.70;;
68714;SDS011;55692;53.356;10.030;2024-01-15T09:08:09;1.45;;;0.55;;
68714;SDS011;55692;53.356;10.030;2024-01-15T09:10:35;7.18;;;0.70;;
68714;SDS011;55692;53.356;10.030;2024-01-15T09:13:01;2.35;;;0.90;;
68714;SDS011;55692;53.356;10.030;2024-01-15T09:15:29;3.95;;;1.00;;
68714;SDS011;55692;53.356;10.030;2024-01-15T09:17:55;3.28;;;0.70;;
68714;SDS011;55692;53.356;10.030;2024-01-15T09:20:23;7.10;;;0.98;;
68714;SDS011;55692;53.356;10.030;2024-01-15T09:22:51;6.78;;;1.00;;
68714;SDS011;55692;53.356;10.030;2024-01-15T09:25:17;6.40;;;1.00;;
68714;SDS011;55692;53.356;10.030;2024-01-15T09:27:44;4.10;;;0.80;;
68714;SDS011;55692;53.356;10.030;2024-01-15T09:30:10;5.03;;;1.13;;
68714;SDS011;55692;53.356;10.030;2024-01-15T09:32:36;5.63;;;0.90;;
68714;SDS011;55692;53.356;10.030;2024-01-15T09:35:02;3.25;;;0.70;;
68714;SDS011;55692;53.356;10.030;2024-01-15T09:37:28;3.70;;;0.88;;
68714;SDS011;55692;53.356;10.030;2024-01-15T09:39:54;6.82;;;1.25;;
68714;SDS011;55692;53.356;10.030;2024-01-15T09:42:20;4.45;;;0.68;;
68714;SDS011;55692;53.356;10.030;2024-01-15T09:44:47;7.28;;;0.85;;
68714;SDS011;55692;53.356;10.030;2024-01-15T09:47:13;6.75;;;1.13;;
68714;SDS011;55692;53.356;10.030;2024-01-15T09:49:41;6.93;;;1.00;;
68714;SDS011;55692;53.356;10.030;2024-01-15T09:52:07;7.47;;;1.40;;
68714;SDS011;55692;53.356;10.030;2024-01-15T09:54:33;9.70;;;1.33;;
68714;SDS011;55692;53.356;10.030;2024-01-15T09:57:00;7.40;;;0.80;;
68714;SDS011;55692;53.356;10.030;2024-01-15T09:59:26;6.53;;;1.20;;
68714;SDS011;55692;53.356;10.030;2024-01-15T10:01:52;4.80;;;1.02;;
68714;SDS011;55692;53.356;10.030;2024-01-15T10:04:19;3.40;;;0.90;;
68714;SDS011;55692;53.356;10.030;2024-01-15T10:06:45;5.07;;;0.93;;
68714;SDS011;55692;53.356;10.030;2024-01-15T10:09:12;4.22;;;1.00;;
68714;SDS011;55692;53.356;10.030;2024-01-15T10:11:42;5.10;;;0.90;;
68714;SDS011;55692;53.356;10.030;2024-01-15T10:14:09;1.67;;;0.70;;
68714;SDS011;55692;53.356;10.030;2024-01-15T10:16:37;1.85;;;0.60;;
68714;SDS011;55692;53.356;10.030;2024-01-15T10:19:04;3.25;;;0.80;;
68714;SDS011;55692;53.356;10.030;2024-01-15T10:21:31;1.30;;;0.75;;
68714;SDS011;55692;53.356;10.030;2024-01-15T10:23:59;4.80;;;0.90;;
68714;SDS011;55692;53.356;10.030;2024-01-15T10:26:26;5.38;;;0.70;;
68714;SDS011;55692;53.356;10.030;2024-01-15T10:28:52;1.42;;;0.63;;
68714;SDS011;55692;53.356;10.030;2024-01-15T10:31:18;1.63;;;0.70;;
68714;SDS011;55692;53.356;10.030;2024-01-15T10:33:50;2.53;;;1.10;;
68714;SDS011;55692;53.356;10.030;2024-01-15T10:36:17;2.05;;;0.82;;
68714;SDS011;55692;53.356;10.030;2024-01-15T10:38:43;2.53;;;0.77;;
68714;SDS011;55692;53.356;10.030;2024-01-15T10:41:09;2.28;;;0.70;;
68714;SDS011;55692;53.356;10.030;2024-01-15T10:43:36;3.88;;;0.75;;
68714;SDS011;55692;53.356;10.030;2024-01-15T10:46:02;2.15;;;0.68;;
68714;SDS011;55692;53.356;10.030;2024-01-15T10:48:28;1.05;;;0.57;;
68714;SDS011;55692;53.356;10.030;2024-01-15T10:50:56;0.50;;;0.40;;
68714;SDS011;55692;53.356;10.030;2024-01-15T10:53:22;1.88;;;0.45;;
68714;SDS011;55692;53.356;10.030;2024-01-15T10:55:50;3.63;;;0.63;;
68714;SDS011;55692;53.356;10.030;2024-01-15T10:58:20;0.65;;;0.50;;
68714;SDS011;55692;53.356;10.030;2024-01-15T11:00:46;2.15;;;0.30;;
68714;SDS011;55692;53.356;10.030;2024-01-15T11:03:12;2.55;;;0.50;;
68714;SDS011;55692;53.356;10.030;2024-01-15T11:05:38;2.97;;;0.60;;
68714;SDS011;55692;53.356;10.030;2024-01-15T11:08:08;2.30;;;0.60;;
68714;SDS011;55692;53.356;10.030;2024-01-15T11:16:00;2.47;;;0.68;;
68714;SDS011;55692;53.356;10.030;2024-01-15T11:18:27;1.88;;;0.75;;
68714;SDS011;55692;53.356;10.030;2024-01-15T11:23:42;4.10;;;1.15;;
68714;SDS011;55692;53.356;10.030;2024-01-15T11:29:02;2.90;;;0.77;;
68714;SDS011;55692;53.356;10.030;2024-01-15T11:34:07;4.57;;;1.00;;
68714;SDS011;55692;53.356;10.030;2024-01-15T11:42:01;5.10;;;0.90;;
68714;SDS011;55692;53.356;10.030;2024-01-15T11:44:28;3.17;;;0.77;;
68714;SDS011;55692;53.356;10.030;2024-01-15T11:49:32;1.15;;;0.70;;
68714;SDS011;55692;53.356;10.030;2024-01-15T11:52:08;3.35;;;1.00;;
68714;SDS011;55692;53.356;10.030;2024-01-15T11:54:36;6.22;;;0.95;;
68714;SDS011;55692;53.356;10.030;2024-01-15T11:57:10;6.70;;;0.77;;
68714;SDS011;55692;53.356;10.030;2024-01-15T11:59:38;1.20;;;0.63;;
68714;SDS011;55692;53.356;10.030;2024-01-15T12:02:05;3.65;;;0.82;;
68714;SDS011;55692;53.356;10.030;2024-01-15T12:04:31;1.52;;;0.68;;
68714;SDS011;55692;53.356;10.030;2024-01-15T12:06:57;1.25;;;0.52;;
68714;SDS011;55692;53.356;10.030;2024-01-15T12:09:23;1.13;;;0.50;;
68714;SDS011;55692;53.356;10.030;2024-01-15T12:11:54;1.20;;;0.57;;
68714;SDS011;55692;53.356;10.030;2024-01-15T12:14:22;0.43;;;0.40;;
68714;SDS011;55692;53.356;10.030;2024-01-15T12:16:48;0.70;;;0.45;;
68714;SDS011;55692;53.356;10.030;2024-01-15T12:19:15;0.57;;;0.40;;
68714;SDS011;55692;53.356;10.030;2024-01-15T12:21:41;0.63;;;0.20;;
68714;SDS011;55692;53.356;10.030;2024-01-15T12:24:08;0.85;;;0.30;;
68714;SDS011;55692;53.356;10.030;2024-01-15T12:26:34;0.90;;;0.50;;
68714;SDS011;55692;53.356;10.030;2024-01-15T12:29:05;16.48;;;1.25;;
68714;SDS011;55692;53.356;10.030;2024-01-15T12:31:32;14.93;;;1.05;;
68714;SDS011;55692;53.356;10.030;2024-01-15T12:33:58;7.65;;;0.82;;
68714;SDS011;55692;53.356;10.030;2024-01-15T12:36:24;12.30;;;0.60;;
68714;SDS011;55692;53.356;10.030;2024-01-15T12:38:50;3.95;;;0.52;;
68714;SDS011;55692;53.356;10.030;2024-01-15T12:41:16;1.45;;;0.25;;
68714;SDS011;55692;53.356;10.030;2024-01-15T12:43:42;1.55;;;0.55;;
68714;SDS011;55692;53.356;10.030;2024-01-15T12:46:08;0.82;;;0.38;;
68714;SDS011;55692;53.356;10.030;2024-01-15T12:48:34;2.00;;;0.20;;
68714;SDS011;55692;53.356;10.030;2024-01-15T12:51:01;2.00;;;0.30;;
68714;SDS011;55692;53.356;10.030;2024-01-15T12:53:31;0.32;;;0.20;;
68714;SDS011;55692;53.356;10.030;2024-01-15T12:55:57;1.80;;;0.20;;
68714;SDS011;55692;53.356;10.030;2024-01-15T12:58:23;4.47;;;0.28;;
68714;SDS011;55692;53.356;10.030;2024-01-15T13:00:49;2.42;;;0.40;;
68714;SDS011;55692;53.356;10.030;2024-01-15T13:03:15;0.77;;;0.30;;
68714;SDS011;55692;53.356;10.030;2024-01-15T13:05:41;0.68;;;0.40;;
68714;SDS011;55692;53.356;10.030;2024-01-15T13:08:07;0.50;;;0.38;;
68714;SDS011;55692;53.356;10.030;2024-01-15T13:10:33;0.43;;;0.30;;
68714;SDS011;55692;53.356;10.030;2024-01-15T13:12:59;0.47;;;0.30;;
68714;SDS011;55692;53.356;10.030;2024-01-15T13:15:26;0.40;;;0.30;;
68714;SDS011;55692;53.356;10.030;2024-01-15T13:17:52;0.52;;;0.22;;
68714;SDS011;55692;53.356;10.030;2024-01-15T13:20:19;1.50;;;0.40;;
68714;SDS011;55692;53.356;10.030;2024-01-15T13:22:45;2.05;;;0.32;;
68714;SDS011;55692;53.356;10.030;2024-01-15T13:25:11;1.15;;;0.30;;
68714;SDS011;55692;53.356;10.030;2024-01-15T13:27:37;1.67;;;0.60;;
68714;SDS011;55692;53.356;10.030;2024-01-15T13:30:03;1.33;;;0.45;;
68714;SDS011;55692;53.356;10.030;2024-01-15T13:32:31;0.57;;;0.40;;
68714;SDS011;55692;53.356;10.030;2024-01-15T13:34:57;2.95;;;0.50;;
68714;SDS011;55692;53.356;10.030;2024-01-15T13:37:24;0.60;;;0.43;;
68714;SDS011;55692;53.356;10.030;2024-01-15T13:39:50;0.30;;;0.30;;
68714;SDS011;55692;53.356;10.030;2024-01-15T13:42:19;1.63;;;0.52;;
68714;SDS011;55692;53.356;10.030;2024-01-15T13:44:48;0.60;;;0.40;;
68714;SDS011;55692;53.356;10.030;2024-01-15T13:47:14;0.73;;;0.47;;
68714;SDS011;55692;53.356;10.030;2024-01-15T13:49:40;2.38;;;0.50;;
68714;SDS011;55692;53.356;10.030;2024-01-15T13:52:06;2.97;;;0.45;;
68714;SDS011;55692;53.356;10.030;2024-01-15T13:54:32;1.95;;;0.70;;
68714;SDS011;55692;53.356;10.030;2024-01-15T13:56:58;0.73;;;0.40;;
68714;SDS011;55692;53.356;10.030;2024-01-15T13:59:24;3.50;;;0.60;;
68714;SDS011;55692;53.356;10.030;2024-01-15T14:01:50;0.98;;;0.50;;
68714;SDS011;55692;53.356;10.030;2024-01-15T14:04:16;0.95;;;0.50;;
68714;SDS011;55692;53.356;10.030;2024-01-15T14:06:43;0.25;;;0.25;;
68714;SDS011;55692;53.356;10.030;2024-01-15T14:09:09;1.20;;;0.30;;
68714;SDS011;55692;53.356;10.030;2024-01-15T14:11:36;0.55;;;0.40;;
68714;SDS011;55692;53.356;10.030;2024-01-15T14:14:03;0.65;;;0.40;;
68714;SDS011;55692;53.356;10.030;2024-01-15T14:16:29;1.50;;;0.47;;
68714;SDS011;55692;53.356;10.030;2024-01-15T14:18:55;1.95;;;0.60;;
68714;SDS011;55692;53.356;10.030;2024-01-15T14:21:21;0.93;;;0.60;;
68714;SDS011;55692;53.356;10.030;2024-01-15T14:23:48;1.10;;;0.47;;
68714;SDS011;55692;53.356;10.030;2024-01-15T14:26:14;3.72;;;0.60;;
68714;SDS011;55692;53.356;10.030;2024-01-15T14:28:40;2.67;;;0.70;;
68714;SDS011;55692;53.356;10.030;2024-01-15T14:31:06;0.70;;;0.50;;
68714;SDS011;55692;53.356;10.030;2024-01-15T14:33:32;1.83;;;0.80;;
68714;SDS011;55692;53.356;10.030;2024-01-15T14:35:58;1.30;;;0.60;;
68714;SDS011;55692;53.356;10.030;2024-01-15T14:38:24;1.70;;;0.50;;
68714;SDS011;55692;53.356;10.030;2024-01-15T14:40:50;4.00;;;1.55;;
68714;SDS011;55692;53.356;10.030;2024-01-15T14:43:16;1.08;;;0.60;;
68714;SDS011;55692;53.356;10.030;2024-01-15T14:45:42;2.78;;;0.70;;
68714;SDS011;55692;53.356;10.030;2024-01-15T14:48:08;4.20;;;0.75;;